createdAt,value
2019-02-09T00:00:25.018Z,4.40
2019-02-09T00:05:30.657Z,4.43
2019-02-09T00:10:36.793Z,5.03
2019-02-09T00:15:42.169Z,6.63
2019-02-09T00:20:47.470Z,5.83
2019-02-09T00:25:53.759Z,6.07
2019-02-09T00:30:59.276Z,6.73
2019-02-09T00:36:04.772Z,5.00
2019-02-09T00:41:10.064Z,4.87
2019-02-09T00:46:15.549Z,4.77
2019-02-09T00:51:21.123Z,5.03
2019-02-09T00:56:26.573Z,6.07
2019-02-09T01:01:31.766Z,4.47
2019-02-09T01:06:36.929Z,3.73
2019-02-09T01:11:42.104Z,4.23
2019-02-09T01:16:47.603Z,5.97
2019-02-09T01:21:53.640Z,4.43
2019-02-09T01:26:59.143Z,4.07
2019-02-09T01:32:04.466Z,4.10
2019-02-09T01:37:10.844Z,4.77
2019-02-09T01:42:16.640Z,3.60
2019-02-09T01:47:22.935Z,1.97
2019-02-09T01:52:28.061Z,3.03
2019-02-09T01:57:33.551Z,4.27
2019-02-09T02:02:38.716Z,4.13
2019-02-09T02:07:44.235Z,2.67
2019-02-09T02:12:49.795Z,2.77
2019-02-09T02:17:54.973Z,2.80
2019-02-09T02:23:00.613Z,3.77
2019-02-09T02:28:05.986Z,3.00
2019-02-09T02:33:11.184Z,3.53
2019-02-09T02:38:18.066Z,3.37
2019-02-09T02:43:23.346Z,4.07
2019-02-09T02:48:28.871Z,2.67
2019-02-09T02:53:34.023Z,4.93
2019-02-09T02:58:40.272Z,3.70
2019-02-09T03:03:45.432Z,4.83
2019-02-09T03:08:51.289Z,3.83
2019-02-09T03:13:56.513Z,3.73
2019-02-09T03:19:01.815Z,4.83
2019-02-09T03:24:07.409Z,4.77
2019-02-09T03:29:12.906Z,3.90
2019-02-09T03:34:18.984Z,4.50
2019-02-09T03:39:24.156Z,3.90
2019-02-09T03:44:29.646Z,3.17
2019-02-09T03:49:35.622Z,2.90
2019-02-09T03:54:41.759Z,4.23
2019-02-09T03:59:46.940Z,5.57
2019-02-09T04:04:52.099Z,2.50
2019-02-09T04:09:57.730Z,5.57
2019-02-09T04:15:03.009Z,3.93
2019-02-09T04:20:10.461Z,5.50
2019-02-09T04:25:17.828Z,4.33
2019-02-09T04:30:25.056Z,6.17
2019-02-09T04:35:30.292Z,5.70
2019-02-09T04:40:37.096Z,3.27
2019-02-09T04:45:42.264Z,4.73
2019-02-09T04:50:47.889Z,3.17
2019-02-09T04:55:53.539Z,5.93
2019-02-09T05:00:59.154Z,3.70
2019-02-09T05:06:04.732Z,3.03
2019-02-09T05:11:10.260Z,3.80
2019-02-09T05:16:15.745Z,4.27
2019-02-09T05:21:23.302Z,4.10
2019-02-09T05:26:28.477Z,6.20
2019-02-09T05:31:33.706Z,3.83
2019-02-09T05:36:39.385Z,6.00
2019-02-09T05:41:44.839Z,4.00
2019-02-09T05:46:50.024Z,4.00
2019-02-09T05:51:55.565Z,2.83
2019-02-09T05:57:00.759Z,3.53
2019-02-09T06:02:06.058Z,4.13
2019-02-09T06:07:11.488Z,3.43
2019-02-09T06:12:17.001Z,5.53
2019-02-09T06:17:22.185Z,3.97
2019-02-09T06:22:27.720Z,5.60
2019-02-09T06:27:33.606Z,2.33
2019-02-09T06:32:38.816Z,4.57
2019-02-09T06:37:43.992Z,3.93
2019-02-09T06:42:49.371Z,2.67
2019-02-09T06:47:56.526Z,3.07
2019-02-09T06:53:01.726Z,3.70
2019-02-09T06:58:07.000Z,3.47
2019-02-09T07:03:12.197Z,2.23
2019-02-09T07:08:18.509Z,2.50
2019-02-09T07:13:24.056Z,2.33
2019-02-09T07:18:29.261Z,3.50
2019-02-09T07:23:34.377Z,2.17
2019-02-09T07:28:39.614Z,3.57
2019-02-09T07:33:44.985Z,2.93
2019-02-09T07:38:50.176Z,2.00
2019-02-09T07:43:55.536Z,4.37
2019-02-09T07:49:00.717Z,2.70
2019-02-09T07:54:05.947Z,2.70
2019-02-09T07:59:11.537Z,3.47
2019-02-09T08:04:17.864Z,2.50
2019-02-09T08:09:23.908Z,2.47
2019-02-09T08:14:29.388Z,2.17
2019-02-09T08:19:34.738Z,2.90
2019-02-09T08:24:41.741Z,1.87
2019-02-09T08:29:47.911Z,2.60
2019-02-09T08:34:53.226Z,2.40
2019-02-09T08:39:58.403Z,1.67
2019-02-09T08:45:04.273Z,2.53
2019-02-09T08:50:13.471Z,2.77
2019-02-09T08:55:19.200Z,2.03
2019-02-09T09:00:27.924Z,2.77
2019-02-09T09:05:33.633Z,3.83
2019-02-09T09:10:38.910Z,3.73
2019-02-09T09:15:46.861Z,3.10
2019-02-09T09:20:55.767Z,1.47
2019-02-09T09:26:00.947Z,3.13
2019-02-09T09:31:06.507Z,2.87
2019-02-09T09:36:11.727Z,3.00
2019-02-09T09:41:16.918Z,4.17
2019-02-09T09:46:23.995Z,2.23
2019-02-09T09:51:30.309Z,2.13
2019-02-09T09:56:35.642Z,2.20
2019-02-09T10:01:40.819Z,2.62
2019-02-09T10:06:47.023Z,2.43
2019-02-09T10:11:52.202Z,3.43
2019-02-09T10:16:57.381Z,1.17
2019-02-09T10:22:03.017Z,1.72
2019-02-09T10:27:08.627Z,2.20
2019-02-09T10:32:14.550Z,2.90
2019-02-09T10:37:20.446Z,3.33
2019-02-09T10:42:26.443Z,2.83
2019-02-09T10:47:31.911Z,2.17
2019-02-09T10:52:37.639Z,2.50
2019-02-09T10:57:44.090Z,2.20
2019-02-09T11:02:52.148Z,2.60
2019-02-09T11:07:56.699Z,2.52
2019-02-09T11:13:01.971Z,2.57
2019-02-09T11:18:08.148Z,1.90
2019-02-09T11:23:13.330Z,1.63
2019-02-09T11:28:18.513Z,2.03
2019-02-09T11:33:24.797Z,2.00
2019-02-09T11:38:30.935Z,2.40
2019-02-09T11:43:36.209Z,1.63
2019-02-09T11:48:41.672Z,1.13
2019-02-09T11:53:47.208Z,3.50
2019-02-09T11:58:52.623Z,1.70
2019-02-09T12:03:58.197Z,2.77
2019-02-09T12:09:05.244Z,2.40
2019-02-09T12:14:11.051Z,3.03
2019-02-09T12:19:16.231Z,1.73
2019-02-09T12:24:21.704Z,2.77
2019-02-09T12:29:27.681Z,2.07
2019-02-09T12:34:33.083Z,4.15
2019-02-09T12:39:38.284Z,2.23
2019-02-09T12:44:43.869Z,2.67
2019-02-09T12:49:49.057Z,3.17
2019-02-09T12:54:54.708Z,4.20
2019-02-09T13:00:01.275Z,3.43
2019-02-09T13:05:07.105Z,3.33
2019-02-09T13:10:13.135Z,2.90
2019-02-09T13:15:20.707Z,2.60
2019-02-09T13:20:27.076Z,4.80
2019-02-09T13:25:32.335Z,4.03
2019-02-09T13:30:38.935Z,4.03
2019-02-09T13:35:45.175Z,2.87
2019-02-09T13:40:51.171Z,6.50
2019-02-09T13:45:56.433Z,2.67
2019-02-09T13:51:02.768Z,5.47
2019-02-09T13:56:07.953Z,3.07
2019-02-09T14:01:13.912Z,4.67
2019-02-09T14:06:19.174Z,4.08
2019-02-09T14:11:24.844Z,4.65
2019-02-09T14:16:38.465Z,4.28
2019-02-09T14:21:40.077Z,2.77
2019-02-09T14:26:45.570Z,4.27
2019-02-09T14:31:50.865Z,3.12
2019-02-09T14:36:57.959Z,3.83
2019-02-09T14:42:03.222Z,7.17
2019-02-09T14:47:08.930Z,3.40
2019-02-09T14:52:14.665Z,3.47
2019-02-09T14:57:21.392Z,5.07
2019-02-09T15:02:27.672Z,3.77
2019-02-09T15:07:32.933Z,5.08
2019-02-09T15:12:38.538Z,3.40
2019-02-09T15:17:43.813Z,2.67
2019-02-09T15:22:49.705Z,4.23
2019-02-09T15:27:54.931Z,5.17
2019-02-09T15:33:01.312Z,6.62
2019-02-09T15:38:06.583Z,3.80
2019-02-09T15:43:11.764Z,5.33
2019-02-09T15:48:16.953Z,4.07
2019-02-09T15:53:22.488Z,4.97
2019-02-09T15:58:27.680Z,2.47
2019-02-09T16:03:33.195Z,3.77
2019-02-09T16:08:38.424Z,2.87
2019-02-09T16:13:45.810Z,6.63
2019-02-09T16:18:51.281Z,4.43
2019-02-09T16:23:57.435Z,5.50
2019-02-09T16:29:02.799Z,6.25
2019-02-09T16:34:08.010Z,6.30
2019-02-09T16:39:13.837Z,4.07
2019-02-09T16:44:19.865Z,6.87
2019-02-09T16:49:25.357Z,5.47
2019-02-09T16:54:30.740Z,4.67
2019-02-09T16:59:37.316Z,7.83
2019-02-09T17:04:42.493Z,5.73
2019-02-09T17:09:48.063Z,7.33
2019-02-09T17:14:53.557Z,3.57
2019-02-09T17:19:59.302Z,6.60
2019-02-09T17:25:07.655Z,9.70
2019-02-09T17:30:16.667Z,4.57
2019-02-09T17:35:22.010Z,3.73
2019-02-09T17:40:38.804Z,8.70
2019-02-09T17:45:50.049Z,8.67
2019-02-09T17:50:55.587Z,5.40
2019-02-09T17:56:01.522Z,4.60
2019-02-09T18:01:11.564Z,7.23
2019-02-09T18:06:17.195Z,7.37
2019-02-09T18:11:23.264Z,7.53
2019-02-09T18:16:28.444Z,5.97
2019-02-09T18:21:34.130Z,8.47
2019-02-09T18:26:39.335Z,6.03
2019-02-09T18:31:45.521Z,4.30
2019-02-09T18:36:51.008Z,5.77
2019-02-09T18:41:56.983Z,4.63
2019-02-09T18:47:02.939Z,5.13
2019-02-09T18:52:09.073Z,6.13
2019-02-09T18:57:14.248Z,4.80
2019-02-09T19:02:19.728Z,6.67
2019-02-09T19:07:25.349Z,6.70
2019-02-09T19:12:30.751Z,7.50
2019-02-09T19:17:37.442Z,4.33
2019-02-09T19:22:42.805Z,4.47
2019-02-09T19:27:48.085Z,5.97
2019-02-09T19:32:53.832Z,5.27
2019-02-09T19:37:59.036Z,7.17
2019-02-09T19:43:05.421Z,5.80
2019-02-09T19:48:11.447Z,3.90
2019-02-09T19:53:17.185Z,4.60
2019-02-09T19:58:22.355Z,5.07
2019-02-09T20:03:27.859Z,7.50
2019-02-09T20:08:34.508Z,4.50
2019-02-09T20:13:40.124Z,4.83
2019-02-09T20:18:45.656Z,5.73
2019-02-09T20:23:51.703Z,7.10
2019-02-09T20:28:56.969Z,4.17
2019-02-09T20:34:02.546Z,5.97
2019-02-09T20:39:09.987Z,3.83
2019-02-09T20:44:16.607Z,6.43
2019-02-09T20:49:21.811Z,6.63
2019-02-09T20:54:27.702Z,6.40
2019-02-09T20:59:33.379Z,7.13
2019-02-09T21:04:38.654Z,8.97
2019-02-09T21:09:44.304Z,11.30
2019-02-09T21:14:50.226Z,6.33
2019-02-09T21:19:56.657Z,7.03
2019-02-09T21:25:06.684Z,5.20
2019-02-09T21:30:15.108Z,5.30
2019-02-09T21:35:21.592Z,7.70
2019-02-09T21:40:27.877Z,7.50
2019-02-09T21:45:33.113Z,6.17
2019-02-09T21:50:38.783Z,6.10
2019-02-09T21:55:44.037Z,7.13
2019-02-09T22:00:49.214Z,6.40
2019-02-09T22:05:55.409Z,6.30
2019-02-09T22:11:00.584Z,7.00
2019-02-09T22:16:05.965Z,7.57
2019-02-09T22:21:12.292Z,5.53
2019-02-09T22:26:17.498Z,7.77
2019-02-09T22:31:22.744Z,9.67
2019-02-09T22:36:28.061Z,7.50
2019-02-09T22:41:33.746Z,6.17
2019-02-09T22:46:38.949Z,4.77
2019-02-09T22:51:44.689Z,9.50
2019-02-09T22:56:50.824Z,6.47
2019-02-09T23:01:56.786Z,4.17
2019-02-09T23:07:08.940Z,7.63
2019-02-09T23:12:14.221Z,7.23
2019-02-09T23:17:19.399Z,6.43
2019-02-09T23:22:24.921Z,7.60
2019-02-09T23:27:30.192Z,9.40
2019-02-09T23:32:35.648Z,5.70
2019-02-09T23:37:40.904Z,4.80
2019-02-09T23:42:46.462Z,7.37
2019-02-09T23:47:51.647Z,6.67
2019-02-09T23:52:57.167Z,9.50
2019-02-09T23:58:02.333Z,6.93
